createdAt,value
2023-12-09T00:01:46.686Z,2.33
2023-12-09T00:04:13.969Z,2.36
2023-12-09T00:06:51.483Z,2.39
2023-12-09T00:09:21.815Z,2.39
2023-12-09T00:11:49.001Z,2.41
2023-12-09T00:14:16.336Z,2.43
2023-12-09T00:16:46.638Z,2.44
2023-12-09T00:19:14.599Z,2.49
2023-12-09T00:21:42.256Z,2.48
2023-12-09T00:24:15.330Z,2.48
2023-12-09T00:26:42.649Z,2.48
2023-12-09T00:29:11.929Z,2.46
2023-12-09T00:31:39.054Z,2.49
2023-12-09T00:34:06.908Z,2.48
2023-12-09T00:36:34.539Z,2.47
2023-12-09T00:39:04.092Z,2.48
2023-12-09T00:41:33.090Z,2.46
2023-12-09T00:44:00.201Z,2.44
2023-12-09T00:46:27.414Z,2.40
2023-12-09T00:48:55.220Z,2.40
2023-12-09T00:51:22.588Z,2.36
2023-12-09T00:53:49.818Z,2.35
2023-12-09T00:56:33.030Z,2.34
2023-12-09T00:59:06.478Z,2.31
2023-12-09T01:01:36.919Z,2.31
2023-12-09T01:04:07.568Z,2.29
2023-12-09T01:06:37.284Z,2.27
2023-12-09T01:09:04.702Z,2.28
2023-12-09T01:11:31.838Z,2.29
2023-12-09T01:13:59.059Z,2.28
2023-12-09T01:16:26.173Z,2.27
2023-12-09T01:18:53.619Z,2.28
2023-12-09T01:21:20.850Z,2.26
2023-12-09T01:23:48.078Z,2.23
2023-12-09T01:26:15.267Z,2.23
2023-12-09T01:28:42.517Z,2.22
2023-12-09T01:31:09.844Z,2.22
2023-12-09T01:33:39.055Z,2.20
2023-12-09T01:36:06.308Z,2.19
2023-12-09T01:38:33.533Z,2.18
2023-12-09T01:41:00.673Z,2.15
2023-12-09T01:43:27.986Z,2.13
2023-12-09T01:45:57.322Z,2.11
2023-12-09T01:48:25.400Z,2.08
2023-12-09T01:50:52.786Z,2.06
2023-12-09T01:53:19.969Z,2.05
2023-12-09T01:55:48.114Z,2.05
2023-12-09T01:58:16.451Z,2.00
2023-12-09T02:00:46.764Z,1.99
2023-12-09T02:03:14.428Z,1.99
2023-12-09T02:05:43.268Z,1.97
2023-12-09T02:08:13.799Z,1.99
2023-12-09T02:10:41.798Z,1.99
2023-12-09T02:13:21.810Z,1.98
2023-12-09T02:15:55.460Z,1.98
2023-12-09T02:18:23.810Z,1.97
2023-12-09T02:20:53.437Z,1.99
2023-12-09T02:23:20.879Z,1.99
2023-12-09T02:25:51.220Z,1.98
2023-12-09T02:28:21.663Z,2.00
2023-12-09T02:34:11.708Z,1.96
2023-12-09T02:36:43.537Z,1.95
2023-12-09T02:39:11.770Z,1.95
2023-12-09T02:41:42.244Z,1.94
2023-12-09T02:44:09.621Z,1.94
2023-12-09T02:46:36.946Z,1.94
2023-12-09T02:49:14.832Z,1.94
2023-12-09T02:51:44.945Z,1.96
2023-12-09T02:54:17.052Z,1.96
2023-12-09T02:56:44.325Z,1.98
2023-12-09T02:59:11.461Z,1.96
2023-12-09T03:01:40.415Z,1.96
2023-12-09T03:04:09.593Z,1.97
2023-12-09T03:06:43.655Z,1.99
2023-12-09T03:09:10.966Z,1.97
2023-12-09T03:11:39.040Z,1.93
2023-12-09T03:14:30.971Z,1.92
2023-12-09T03:17:30.479Z,1.91
2023-12-09T03:19:57.999Z,1.91
2023-12-09T03:23:10.545Z,1.93
2023-12-09T03:25:48.826Z,1.93
2023-12-09T03:28:31.389Z,1.93
2023-12-09T03:31:05.613Z,1.94
2023-12-09T03:36:27.750Z,1.94
2023-12-09T03:38:59.268Z,1.94
2023-12-09T03:41:31.245Z,1.94
2023-12-09T03:44:00.995Z,1.91
2023-12-09T03:49:43.936Z,1.91
2023-12-09T03:52:30.481Z,1.93
2023-12-09T03:55:01.462Z,1.93
2023-12-09T03:57:40.446Z,1.94
2023-12-09T04:00:12.724Z,1.96
2023-12-09T04:02:45.500Z,1.94
2023-12-09T04:08:00.345Z,1.91
2023-12-09T04:10:32.125Z,1.94
2023-12-09T04:13:07.565Z,1.96
2023-12-09T04:15:42.713Z,1.99
2023-12-09T04:18:15.979Z,1.99
2023-12-09T04:20:43.541Z,2.03
2023-12-09T04:23:16.674Z,2.02
2023-12-09T04:25:43.967Z,2.04
2023-12-09T04:28:23.709Z,2.06
2023-12-09T04:31:11.434Z,2.06
2023-12-09T04:33:38.873Z,2.05
2023-12-09T04:36:08.940Z,2.03
2023-12-09T04:38:36.207Z,2.01
2023-12-09T04:41:03.441Z,2.00
2023-12-09T04:43:30.499Z,2.00
2023-12-09T04:45:57.593Z,2.02
2023-12-09T04:48:25.052Z,2.02
2023-12-09T04:50:52.994Z,2.05
2023-12-09T04:53:20.773Z,2.03
2023-12-09T04:55:48.065Z,2.04
2023-12-09T04:58:15.165Z,2.06
2023-12-09T05:00:42.610Z,2.03
2023-12-09T05:03:12.957Z,2.03
2023-12-09T05:05:40.197Z,2.04
2023-12-09T05:08:07.771Z,2.06
2023-12-09T05:10:34.871Z,2.05
2023-12-09T05:13:01.967Z,2.09
2023-12-09T05:15:33.591Z,2.09
2023-12-09T05:18:01.213Z,2.10
2023-12-09T05:20:28.420Z,2.10
2023-12-09T05:22:55.841Z,2.08
2023-12-09T05:25:22.910Z,2.09
2023-12-09T05:27:50.679Z,2.11
2023-12-09T05:30:17.921Z,2.12
2023-12-09T05:32:45.103Z,2.15
2023-12-09T05:35:12.261Z,2.20
2023-12-09T05:37:39.414Z,2.24
2023-12-09T05:40:08.012Z,2.30
2023-12-09T05:42:35.336Z,2.32
2023-12-09T05:45:08.116Z,2.34
2023-12-09T05:47:35.616Z,2.35
2023-12-09T05:50:02.960Z,2.36
2023-12-09T05:52:33.204Z,2.37
2023-12-09T05:55:00.498Z,2.39
2023-12-09T05:57:27.947Z,2.39
2023-12-09T05:59:58.798Z,2.39
2023-12-09T06:02:31.054Z,2.37
2023-12-09T06:04:58.468Z,2.36
2023-12-09T06:07:25.551Z,2.38
2023-12-09T06:09:52.763Z,2.35
2023-12-09T06:12:22.631Z,2.31
2023-12-09T06:14:49.827Z,2.30
2023-12-09T06:17:18.843Z,2.30
2023-12-09T06:19:48.478Z,2.36
2023-12-09T06:22:15.617Z,2.37
2023-12-09T06:24:46.006Z,2.41
2023-12-09T06:27:23.285Z,2.40
2023-12-09T06:29:52.210Z,2.42
2023-12-09T06:32:22.699Z,2.47
2023-12-09T06:34:50.148Z,2.47
2023-12-09T06:37:17.580Z,2.49
2023-12-09T06:39:47.555Z,2.53
2023-12-09T06:42:17.924Z,2.59
2023-12-09T06:44:45.263Z,2.63
2023-12-09T06:47:13.314Z,2.64
2023-12-09T06:49:49.503Z,2.68
2023-12-09T06:52:55.602Z,2.72
2023-12-09T06:56:04.772Z,2.76
2023-12-09T06:59:29.563Z,2.80
2023-12-09T07:01:57.554Z,2.86
2023-12-09T07:04:24.902Z,2.89
2023-12-09T07:06:52.035Z,2.89
2023-12-09T07:09:19.174Z,2.90
2023-12-09T07:11:46.393Z,2.89
2023-12-09T07:14:16.223Z,2.86
2023-12-09T07:16:43.338Z,2.87
2023-12-09T07:19:10.722Z,2.87
2023-12-09T07:21:37.945Z,2.87
2023-12-09T07:24:07.549Z,2.86
2023-12-09T07:26:36.274Z,2.85
2023-12-09T07:29:06.372Z,2.87
2023-12-09T07:31:34.030Z,2.89
2023-12-09T07:34:01.873Z,2.93
2023-12-09T07:36:29.026Z,2.98
2023-12-09T07:38:56.228Z,3.00
2023-12-09T07:41:23.393Z,3.02
2023-12-09T07:43:50.600Z,3.07
2023-12-09T07:46:17.759Z,3.14
2023-12-09T07:48:45.041Z,3.21
2023-12-09T07:51:12.553Z,3.27
2023-12-09T07:53:39.840Z,3.31
2023-12-09T07:57:06.343Z,3.37
2023-12-09T07:59:56.985Z,3.46
2023-12-09T08:02:24.636Z,3.49
2023-12-09T08:04:52.862Z,3.50
2023-12-09T08:07:57.887Z,3.51
2023-12-09T08:11:23.455Z,3.46
2023-12-09T08:14:39.787Z,3.47
2023-12-09T08:17:37.283Z,3.49
2023-12-09T08:20:46.584Z,3.52
2023-12-09T08:23:40.470Z,3.54
2023-12-09T08:39:26.422Z,3.93
2023-12-09T08:41:53.662Z,4.00
2023-12-09T08:44:20.728Z,4.04
2023-12-09T08:46:47.888Z,4.09
2023-12-09T08:49:15.032Z,4.10
2023-12-09T08:51:48.998Z,4.11
2023-12-09T08:54:16.796Z,4.13
2023-12-09T08:56:44.082Z,4.13
2023-12-09T08:59:12.140Z,4.15
2023-12-09T09:01:39.816Z,4.18
2023-12-09T09:04:07.534Z,4.21
2023-12-09T09:06:34.988Z,4.22
2023-12-09T09:09:02.208Z,4.26
2023-12-09T09:11:29.360Z,4.27
2023-12-09T09:13:56.893Z,4.32
2023-12-09T09:16:24.151Z,4.39
2023-12-09T09:18:51.543Z,4.43
2023-12-09T09:21:18.771Z,4.45
2023-12-09T09:23:45.884Z,4.49
2023-12-09T09:26:12.975Z,4.51
2023-12-09T09:28:40.227Z,4.56
2023-12-09T09:31:07.388Z,4.63
2023-12-09T09:33:34.545Z,4.66
2023-12-09T09:36:01.793Z,4.68
2023-12-09T09:38:28.948Z,4.73
2023-12-09T09:40:56.973Z,4.77
2023-12-09T09:43:26.477Z,4.83
2023-12-09T09:45:54.587Z,4.87
2023-12-09T09:48:25.281Z,4.94
2023-12-09T09:50:53.905Z,5.00
2023-12-09T09:53:27.825Z,5.06
2023-12-09T09:55:55.319Z,5.13
2023-12-09T09:58:22.769Z,5.18
2023-12-09T10:00:50.220Z,5.25
2023-12-09T10:03:17.527Z,5.33
2023-12-09T10:05:44.751Z,5.46
2023-12-09T10:08:11.985Z,5.58
2023-12-09T10:10:39.230Z,5.79
2023-12-09T10:13:06.337Z,6.06
2023-12-09T10:15:33.714Z,6.17
2023-12-09T10:18:03.109Z,6.13
2023-12-09T10:20:31.078Z,6.08
2023-12-09T10:23:01.153Z,6.06
2023-12-09T10:25:29.209Z,6.02
2023-12-09T10:27:57.230Z,5.97
2023-12-09T10:30:24.522Z,5.86
2023-12-09T10:32:53.260Z,5.76
2023-12-09T10:35:20.592Z,5.71
2023-12-09T10:37:51.057Z,5.64
2023-12-09T10:40:18.845Z,5.57
2023-12-09T10:42:46.008Z,5.51
2023-12-09T10:45:13.284Z,5.47
2023-12-09T10:47:40.640Z,5.46
2023-12-09T10:50:08.527Z,5.62
2023-12-09T10:52:37.746Z,5.84
2023-12-09T10:55:06.766Z,5.96
2023-12-09T10:57:34.643Z,6.14
2023-12-09T11:00:08.228Z,6.13
2023-12-09T11:02:36.306Z,6.21
2023-12-09T11:05:04.077Z,6.31
2023-12-09T11:07:31.285Z,6.37
2023-12-09T11:09:58.524Z,6.40
2023-12-09T11:12:31.614Z,6.49
2023-12-09T11:15:14.548Z,6.53
2023-12-09T11:17:45.261Z,6.49
2023-12-09T11:20:16.449Z,6.56
2023-12-09T11:22:47.937Z,6.59
2023-12-09T11:25:23.372Z,6.57
2023-12-09T11:27:52.272Z,6.66
2023-12-09T11:30:42.080Z,6.75
2023-12-09T11:33:09.851Z,6.79
2023-12-09T11:35:38.176Z,6.76
2023-12-09T11:38:06.787Z,6.73
2023-12-09T11:40:34.372Z,6.80
2023-12-09T11:43:03.344Z,6.82
2023-12-09T11:45:30.659Z,6.79
2023-12-09T11:47:59.779Z,6.76
2023-12-09T11:50:28.416Z,6.70
2023-12-09T11:52:55.684Z,6.69
2023-12-09T11:55:22.801Z,6.72
2023-12-09T11:57:50.258Z,6.69
2023-12-09T12:00:17.631Z,6.65
2023-12-09T12:02:44.865Z,6.59
2023-12-09T12:05:14.845Z,6.47
2023-12-09T12:07:42.026Z,6.39
2023-12-09T12:10:10.603Z,6.29
2023-12-09T12:12:38.196Z,6.28
2023-12-09T12:15:06.497Z,6.27
2023-12-09T12:17:41.091Z,6.20
2023-12-09T12:20:10.920Z,6.12
2023-12-09T12:22:39.617Z,6.08
2023-12-09T12:25:09.646Z,6.11
2023-12-09T12:27:37.633Z,6.09
2023-12-09T12:30:07.521Z,6.08
2023-12-09T12:32:39.489Z,6.05
2023-12-09T12:35:07.285Z,6.02
2023-12-09T12:37:34.595Z,6.02
2023-12-09T12:40:01.997Z,5.99
2023-12-09T12:42:30.864Z,6.04
2023-12-09T12:44:59.631Z,6.01
2023-12-09T12:47:26.914Z,6.02
2023-12-09T12:49:54.356Z,6.06
2023-12-09T12:52:21.633Z,6.06
2023-12-09T12:54:48.820Z,6.06
2023-12-09T12:57:16.012Z,6.01
2023-12-09T12:59:43.119Z,5.97
2023-12-09T13:02:10.356Z,5.95
2023-12-09T13:04:37.472Z,5.93
2023-12-09T13:07:05.443Z,5.93
2023-12-09T13:09:32.666Z,5.90
2023-12-09T13:11:59.830Z,5.89
2023-12-09T13:14:27.160Z,5.93
2023-12-09T13:16:55.063Z,5.93
2023-12-09T13:19:22.405Z,5.96
2023-12-09T13:21:49.606Z,5.98
2023-12-09T13:24:16.772Z,5.97
2023-12-09T13:26:43.882Z,5.98
2023-12-09T13:29:10.942Z,5.98
2023-12-09T13:31:38.062Z,6.00
2023-12-09T13:34:08.052Z,6.01
2023-12-09T13:36:37.676Z,6.03
2023-12-09T13:39:07.430Z,6.03
2023-12-09T13:41:34.999Z,6.03
2023-12-09T13:44:02.204Z,6.05
2023-12-09T13:46:29.321Z,6.05
2023-12-09T13:48:56.948Z,6.02
2023-12-09T13:51:24.332Z,5.99
2023-12-09T13:53:51.442Z,5.99
2023-12-09T13:56:18.623Z,5.97
2023-12-09T13:58:45.880Z,5.90
2023-12-09T14:01:13.073Z,5.86
2023-12-09T14:03:40.844Z,5.81
2023-12-09T14:06:08.314Z,5.76
2023-12-09T14:08:35.529Z,5.71
2023-12-09T14:11:02.897Z,5.63
2023-12-09T14:13:30.401Z,5.57
2023-12-09T14:15:57.478Z,5.46
2023-12-09T14:18:24.742Z,5.37
2023-12-09T14:20:51.998Z,5.34
2023-12-09T14:23:19.213Z,5.30
2023-12-09T14:25:46.324Z,5.26
2023-12-09T14:28:15.209Z,5.17
2023-12-09T14:30:42.454Z,5.13
2023-12-09T14:33:09.879Z,5.05
2023-12-09T14:35:37.138Z,5.02
2023-12-09T14:38:07.012Z,4.98
2023-12-09T14:40:34.077Z,4.96
2023-12-09T14:43:09.876Z,4.90
2023-12-09T14:45:38.267Z,4.85
2023-12-09T14:48:08.193Z,4.83
2023-12-09T14:50:36.273Z,4.81
2023-12-09T14:53:03.657Z,4.80
2023-12-09T14:55:30.837Z,4.65
2023-12-09T14:57:58.043Z,4.50
2023-12-09T15:00:25.278Z,4.38
2023-12-09T15:02:52.564Z,4.25
2023-12-09T15:05:19.703Z,4.12
2023-12-09T15:07:47.166Z,4.01
2023-12-09T15:10:14.591Z,3.87
2023-12-09T15:12:41.741Z,3.71
2023-12-09T15:15:09.732Z,3.61
2023-12-09T15:17:38.504Z,3.46
2023-12-09T15:20:10.347Z,3.40
2023-12-09T15:22:38.138Z,3.31
2023-12-09T15:25:05.869Z,3.27
2023-12-09T15:27:33.091Z,3.23
2023-12-09T15:30:00.380Z,3.24
2023-12-09T15:32:28.070Z,3.22
2023-12-09T15:34:55.596Z,3.20
2023-12-09T15:37:22.994Z,3.18
2023-12-09T15:39:50.100Z,3.14
2023-12-09T15:42:17.776Z,3.02
2023-12-09T15:44:45.072Z,2.98
2023-12-09T15:47:12.929Z,2.92
2023-12-09T15:49:41.317Z,2.88
2023-12-09T15:52:08.482Z,2.81
2023-12-09T15:54:36.391Z,2.73
2023-12-09T15:57:04.451Z,2.66
2023-12-09T15:59:31.660Z,2.58
2023-12-09T16:01:58.806Z,2.56
2023-12-09T16:04:26.171Z,2.53
2023-12-09T16:06:53.389Z,2.51
2023-12-09T16:09:20.636Z,2.50
2023-12-09T16:11:48.753Z,2.47
2023-12-09T16:14:15.828Z,2.45
2023-12-09T16:16:44.707Z,2.47
2023-12-09T16:19:11.956Z,2.45
2023-12-09T16:21:39.262Z,2.45
2023-12-09T16:24:06.533Z,2.48
2023-12-09T16:26:34.957Z,2.47
2023-12-09T16:29:02.392Z,2.47
2023-12-09T16:31:29.550Z,2.49
2023-12-09T16:33:56.866Z,2.49
2023-12-09T16:36:25.066Z,2.43
2023-12-09T16:38:55.481Z,2.42
2023-12-09T16:41:23.869Z,2.44
2023-12-09T16:43:51.299Z,2.48
2023-12-09T16:46:18.720Z,2.47
2023-12-09T16:48:46.168Z,2.48
2023-12-09T16:51:13.990Z,2.48
2023-12-09T16:53:41.104Z,2.48
2023-12-09T16:56:09.427Z,2.47
2023-12-09T16:58:36.578Z,2.50
2023-12-09T17:01:04.044Z,2.52
2023-12-09T17:03:31.585Z,2.57
2023-12-09T17:05:58.733Z,2.62
2023-12-09T17:08:25.899Z,2.62
2023-12-09T17:10:54.559Z,2.64
2023-12-09T17:13:21.650Z,2.59
2023-12-09T17:15:48.976Z,2.56
2023-12-09T17:18:16.280Z,2.56
2023-12-09T17:20:43.550Z,2.54
2023-12-09T17:23:10.675Z,2.52
2023-12-09T17:25:38.247Z,2.53
2023-12-09T17:28:05.371Z,2.55
2023-12-09T17:30:32.655Z,2.57
2023-12-09T17:32:59.998Z,2.57
2023-12-09T17:35:30.143Z,2.59
2023-12-09T17:37:57.402Z,2.60
2023-12-09T17:40:24.480Z,2.62
2023-12-09T17:42:52.274Z,2.63
2023-12-09T17:45:19.667Z,2.66
2023-12-09T17:47:46.906Z,2.65
2023-12-09T17:50:14.021Z,2.68
2023-12-09T17:52:42.016Z,2.67
2023-12-09T17:55:09.919Z,2.70
2023-12-09T17:57:37.308Z,2.71
2023-12-09T18:00:05.322Z,2.72
2023-12-09T18:02:32.464Z,2.73
2023-12-09T18:04:59.596Z,2.77
2023-12-09T18:07:27.219Z,2.82
2023-12-09T18:09:54.336Z,2.84
2023-12-09T18:12:21.474Z,2.86
2023-12-09T18:14:48.615Z,2.89
2023-12-09T18:17:15.771Z,2.93
2023-12-09T18:19:46.707Z,2.97
2023-12-09T18:22:14.504Z,3.02
2023-12-09T18:24:41.987Z,3.04
2023-12-09T18:27:09.348Z,3.08
2023-12-09T18:29:36.413Z,3.14
2023-12-09T18:32:03.857Z,3.17
2023-12-09T18:34:31.004Z,3.22
2023-12-09T18:36:58.140Z,3.27
2023-12-09T18:39:25.235Z,3.28
2023-12-09T18:41:52.325Z,3.33
2023-12-09T18:44:19.384Z,3.35
2023-12-09T18:46:46.561Z,3.36
2023-12-09T18:49:13.757Z,3.39
2023-12-09T18:51:40.964Z,3.41
2023-12-09T18:54:08.756Z,3.45
2023-12-09T18:56:38.767Z,3.45
2023-12-09T18:59:05.871Z,3.44
2023-12-09T19:01:33.065Z,3.46
2023-12-09T19:04:01.946Z,3.47
2023-12-09T19:06:31.279Z,3.47
2023-12-09T19:09:03.900Z,3.47
2023-12-09T19:11:31.435Z,3.48
2023-12-09T19:13:59.324Z,3.50
2023-12-09T19:16:26.815Z,3.53
2023-12-09T19:18:56.655Z,3.53
2023-12-09T19:21:24.072Z,3.51
2023-12-09T19:23:51.509Z,3.48
2023-12-09T19:26:18.882Z,3.45
2023-12-09T19:28:46.119Z,3.41
2023-12-09T19:31:13.345Z,3.37
2023-12-09T19:33:40.930Z,3.34
2023-12-09T19:36:08.335Z,3.33
2023-12-09T19:38:35.593Z,3.34
2023-12-09T19:41:02.715Z,3.31
2023-12-09T19:43:29.859Z,3.27
2023-12-09T19:45:57.033Z,3.24
2023-12-09T19:48:24.433Z,3.20
2023-12-09T19:50:51.713Z,3.18
2023-12-09T19:53:19.335Z,3.13
2023-12-09T19:55:46.680Z,3.08
2023-12-09T19:58:13.789Z,3.07
2023-12-09T20:00:42.252Z,3.09
2023-12-09T20:03:54.461Z,3.08
2023-12-09T20:06:21.960Z,3.09
2023-12-09T20:08:49.417Z,3.07
2023-12-09T20:11:17.565Z,3.07
2023-12-09T20:13:45.571Z,3.06
2023-12-09T20:16:12.754Z,3.03
2023-12-09T20:18:40.230Z,2.97
2023-12-09T20:21:08.537Z,2.93
2023-12-09T20:23:35.692Z,2.88
2023-12-09T20:26:03.082Z,2.79
2023-12-09T20:28:30.615Z,2.78
2023-12-09T20:31:01.455Z,2.69
2023-12-09T20:33:28.885Z,2.66
2023-12-09T20:35:56.507Z,2.57
2023-12-09T20:38:23.684Z,2.56
2023-12-09T20:40:51.582Z,2.55
2023-12-09T20:43:18.899Z,2.55
2023-12-09T20:45:46.135Z,2.51
2023-12-09T20:48:13.504Z,2.50
2023-12-09T20:50:40.765Z,2.54
2023-12-09T20:53:10.794Z,2.53
2023-12-09T20:55:37.958Z,2.51
2023-12-09T20:58:05.415Z,2.44
2023-12-09T21:00:32.614Z,2.31
2023-12-09T21:02:59.753Z,2.25
2023-12-09T21:05:26.918Z,2.17
2023-12-09T21:07:55.683Z,2.08
2023-12-09T21:10:23.361Z,2.03
2023-12-09T21:12:51.608Z,1.99
2023-12-09T21:15:19.172Z,1.95
2023-12-09T21:17:46.626Z,1.93
2023-12-09T21:20:13.915Z,1.91
2023-12-09T21:22:41.063Z,1.88
2023-12-09T21:25:10.738Z,1.88
2023-12-09T21:27:38.248Z,1.87
2023-12-09T21:30:06.941Z,1.87
2023-12-09T21:32:35.088Z,1.82
2023-12-09T21:35:02.189Z,1.80
2023-12-09T21:37:29.283Z,1.78
2023-12-09T21:39:56.597Z,1.80
2023-12-09T21:42:23.768Z,1.81
2023-12-09T21:44:53.824Z,1.79
2023-12-09T21:47:22.951Z,1.79
2023-12-09T21:49:50.259Z,1.81
2023-12-09T21:52:17.578Z,1.83
2023-12-09T21:54:45.573Z,1.90
2023-12-09T21:57:12.760Z,1.94
2023-12-09T21:59:40.158Z,1.96
2023-12-09T22:02:07.312Z,2.02
2023-12-09T22:04:34.519Z,2.05
2023-12-09T22:07:01.600Z,2.06
2023-12-09T22:09:28.770Z,2.07
2023-12-09T22:11:55.860Z,2.08
2023-12-09T22:14:23.007Z,2.11
2023-12-09T22:16:50.298Z,2.14
2023-12-09T22:19:17.613Z,2.13
2023-12-09T22:21:45.366Z,2.15
2023-12-09T22:24:12.576Z,2.17
2023-12-09T22:26:43.673Z,2.14
2023-12-09T22:29:11.141Z,2.14
2023-12-09T22:31:42.733Z,2.14
2023-12-09T22:34:10.871Z,2.13
2023-12-09T22:36:38.349Z,2.12
2023-12-09T22:39:09.106Z,2.10
2023-12-09T22:41:36.467Z,2.06
2023-12-09T22:44:05.474Z,2.03
2023-12-09T22:46:33.048Z,2.02
2023-12-09T22:49:01.039Z,2.01
2023-12-09T22:51:29.053Z,1.97
2023-12-09T22:53:56.419Z,1.96
2023-12-09T22:56:24.251Z,1.94
2023-12-09T22:58:52.898Z,1.91
2023-12-09T23:01:24.580Z,1.89
2023-12-09T23:03:51.896Z,1.85
2023-12-09T23:06:19.609Z,1.78
2023-12-09T23:08:47.261Z,1.74
2023-12-09T23:11:14.718Z,1.70
2023-12-09T23:13:41.993Z,1.72
2023-12-09T23:16:10.806Z,1.74
2023-12-09T23:18:39.135Z,1.76
2023-12-09T23:21:07.763Z,1.79
2023-12-09T23:23:35.447Z,1.80
2023-12-09T23:26:02.797Z,1.78
2023-12-09T23:28:30.037Z,1.76
2023-12-09T23:30:57.264Z,1.77
2023-12-09T23:33:24.857Z,1.77
2023-12-09T23:35:52.076Z,1.73
2023-12-09T23:38:19.535Z,1.72
2023-12-09T23:40:46.670Z,1.68
2023-12-09T23:43:13.769Z,1.67
2023-12-09T23:45:41.649Z,1.66
2023-12-09T23:48:09.039Z,1.66
2023-12-09T23:50:36.278Z,1.68
2023-12-09T23:53:03.665Z,1.68
2023-12-09T23:55:30.813Z,1.66
2023-12-09T23:57:58.016Z,1.66
